createdAt,value
2018-10-09T00:01:57.195Z,10.50
2018-10-09T00:04:43.939Z,10.50
2018-10-09T00:07:33.506Z,10.50
2018-10-09T00:10:29.078Z,10.50
2018-10-09T00:13:13.626Z,10.60
2018-10-09T00:15:56.055Z,10.70
2018-10-09T00:18:53.167Z,10.70
2018-10-09T00:30:53.136Z,10.70
2018-10-09T00:33:30.363Z,10.70
2018-10-09T00:36:35.575Z,10.60
2018-10-09T00:39:22.505Z,10.60
2018-10-09T00:42:03.858Z,10.50
2018-10-09T00:44:46.254Z,10.50
2018-10-09T00:50:22.340Z,10.50
2018-10-09T00:53:05.875Z,10.50
2018-10-09T00:59:10.721Z,10.50
2018-10-09T01:02:09.514Z,10.50
2018-10-09T01:04:55.545Z,10.50
2018-10-09T01:10:50.328Z,10.40
2018-10-09T01:13:33.842Z,10.40
2018-10-09T01:16:30.161Z,10.40
2018-10-09T01:19:18.318Z,10.40
2018-10-09T01:22:01.713Z,10.30
2018-10-09T01:24:45.691Z,10.30
2018-10-09T01:27:45.872Z,10.20
2018-10-09T01:30:34.591Z,10.20
2018-10-09T01:33:18.360Z,10.00
2018-10-09T01:36:00.521Z,10.00
2018-10-09T01:38:56.742Z,10.00
2018-10-09T01:41:50.399Z,9.90
2018-10-09T01:44:50.848Z,9.80
2018-10-09T01:47:30.835Z,9.80
2018-10-09T01:50:16.975Z,9.70
2018-10-09T01:53:19.725Z,9.70
2018-10-09T01:55:59.119Z,9.70
2018-10-09T01:58:54.513Z,9.70
2018-10-09T02:01:45.627Z,9.70
2018-10-09T02:04:33.467Z,9.70
2018-10-09T02:07:19.908Z,9.70
2018-10-09T02:10:20.449Z,9.70
2018-10-09T02:13:08.797Z,9.70
2018-10-09T02:15:58.958Z,9.70
2018-10-09T02:18:38.820Z,9.70
2018-10-09T02:21:16.443Z,9.80
2018-10-09T02:26:52.569Z,9.80
2018-10-09T02:29:37.294Z,9.70
2018-10-09T02:32:22.294Z,9.70
2018-10-09T02:37:51.830Z,9.60
2018-10-09T02:40:33.930Z,9.60
2018-10-09T02:43:40.048Z,9.60
2018-10-09T02:46:25.860Z,9.60
2018-10-09T02:49:11.293Z,9.60
2018-10-09T02:52:04.690Z,9.70
2018-10-09T02:57:37.136Z,9.70
2018-10-09T03:00:26.171Z,9.70
2018-10-09T03:03:15.200Z,10.00
2018-10-09T03:05:54.460Z,9.90
2018-10-09T03:08:41.920Z,9.90
2018-10-09T03:11:23.177Z,10.00
2018-10-09T03:14:08.191Z,10.10
2018-10-09T03:16:50.237Z,10.00
2018-10-09T03:19:31.985Z,10.10
2018-10-09T03:22:20.904Z,10.00
2018-10-09T03:25:14.676Z,10.00
2018-10-09T03:31:13.301Z,10.00
2018-10-09T03:33:52.657Z,9.90
2018-10-09T03:39:32.187Z,10.00
2018-10-09T03:42:44.601Z,10.00
2018-10-09T03:45:34.466Z,9.90
2018-10-09T03:48:40.931Z,9.90
2018-10-09T03:51:27.871Z,9.90
2018-10-09T03:54:17.884Z,9.90
2018-10-09T03:57:05.373Z,9.80
2018-10-09T03:59:45.613Z,9.80
2018-10-09T04:02:29.307Z,9.80
2018-10-09T04:05:18.651Z,9.80
2018-10-09T04:08:12.082Z,9.80
2018-10-09T04:11:00.271Z,9.80
2018-10-09T04:13:38.100Z,9.80
2018-10-09T04:16:19.191Z,9.80
2018-10-09T04:19:08.103Z,9.80
2018-10-09T04:24:51.914Z,9.70
2018-10-09T04:30:27.180Z,9.70
2018-10-09T04:36:03.866Z,9.70
2018-10-09T04:38:51.324Z,9.60
2018-10-09T04:41:37.776Z,9.60
2018-10-09T04:50:26.193Z,9.60
2018-10-09T04:53:14.100Z,9.60
2018-10-09T04:55:54.697Z,9.60
2018-10-09T04:58:44.759Z,9.60
2018-10-09T05:01:53.524Z,9.60
2018-10-09T05:07:27.787Z,9.40
2018-10-09T05:10:27.217Z,9.30
2018-10-09T05:13:23.889Z,9.30
2018-10-09T05:21:26.075Z,9.10
2018-10-09T05:28:59.171Z,9.20
2018-10-09T05:31:40.174Z,9.20
2018-10-09T05:34:43.155Z,9.10
2018-10-09T05:47:52.485Z,9.10
2018-10-09T05:53:23.013Z,9.10
2018-10-09T05:56:17.732Z,9.00
2018-10-09T05:59:19.724Z,9.00
2018-10-09T06:02:14.514Z,9.00
2018-10-09T06:05:14.862Z,9.00
2018-10-09T06:14:47.045Z,9.30
2018-10-09T06:17:39.021Z,9.40
2018-10-09T06:26:59.423Z,9.60
2018-10-09T06:29:38.638Z,9.60
2018-10-09T06:32:33.984Z,9.90
2018-10-09T06:35:15.959Z,10.00
2018-10-09T06:38:00.879Z,10.10
2018-10-09T06:42:40.395Z,10.20
2018-10-09T06:45:33.133Z,10.40
2018-10-09T06:48:19.681Z,10.50
2018-10-09T06:51:05.590Z,10.60
2018-10-09T06:56:44.614Z,10.80
2018-10-09T06:59:27.162Z,10.80
2018-10-09T07:08:23.209Z,11.20
2018-10-09T07:11:23.237Z,11.40
2018-10-09T07:14:13.776Z,11.60
2018-10-09T07:23:33.254Z,11.90
2018-10-09T07:26:16.934Z,12.20
2018-10-09T07:29:06.402Z,12.30
2018-10-09T07:31:52.284Z,12.10
2018-10-09T07:37:38.717Z,12.20
2018-10-09T07:43:25.411Z,13.00
2018-10-09T07:54:34.847Z,15.10
2018-10-09T07:57:35.478Z,14.80
2018-10-09T08:03:17.260Z,15.40
2018-10-09T08:06:02.543Z,15.80
2018-10-09T08:08:48.711Z,15.90
2018-10-09T08:18:30.019Z,16.10
2018-10-09T08:21:22.262Z,17.40
2018-10-09T08:24:09.950Z,18.90
2018-10-09T08:26:58.517Z,19.00
2018-10-09T08:29:54.662Z,20.40
2018-10-09T08:33:19.357Z,20.50
2018-10-09T08:36:20.504Z,21.00
2018-10-09T08:39:09.774Z,21.40
2018-10-09T08:42:00.881Z,21.70
2018-10-09T08:51:18.881Z,21.60
2018-10-09T08:54:28.135Z,21.20
2018-10-09T09:08:49.870Z,20.00
2018-10-09T09:28:31.411Z,17.30
2018-10-09T09:31:23.857Z,18.00
2018-10-09T09:34:15.999Z,19.00
2018-10-09T09:42:14.882Z,19.20
2018-10-09T09:45:08.892Z,19.40
2018-10-09T09:48:16.303Z,19.20
2018-10-09T09:51:24.751Z,19.00
2018-10-09T09:57:21.729Z,18.60
2018-10-09T10:15:51.127Z,17.90
2018-10-09T10:30:03.392Z,18.70
2018-10-09T10:32:50.720Z,18.70
2018-10-09T10:35:37.694Z,19.50
2018-10-09T10:38:21.783Z,19.60
2018-10-09T10:41:55.551Z,19.80
2018-10-09T10:44:47.179Z,19.90
2018-10-09T10:47:40.634Z,20.20
2018-10-09T10:50:34.060Z,20.10
2018-10-09T10:53:27.000Z,20.00
2018-10-09T10:56:12.564Z,20.10
2018-10-09T11:05:36.121Z,20.10
2018-10-09T11:08:25.832Z,20.60
2018-10-09T11:11:40.650Z,21.10
2018-10-09T11:14:37.347Z,21.40
2018-10-09T11:17:27.205Z,21.80
2018-10-09T11:20:38.581Z,22.00
2018-10-09T11:29:45.143Z,22.30
2018-10-09T11:32:41.967Z,22.20
2018-10-09T11:35:29.285Z,22.10
2018-10-09T11:38:20.604Z,21.90
2018-10-09T11:41:35.530Z,21.30
2018-10-09T11:44:32.991Z,21.40
2018-10-09T11:53:37.581Z,21.60
2018-10-09T11:56:28.327Z,22.00
2018-10-09T11:59:24.503Z,22.00
2018-10-09T12:18:54.862Z,21.90
2018-10-09T12:21:39.273Z,22.10
2018-10-09T12:24:23.014Z,21.90
2018-10-09T12:27:16.727Z,21.70
2018-10-09T12:30:25.694Z,21.70
2018-10-09T12:37:57.472Z,21.40
2018-10-09T12:56:18.994Z,21.40
2018-10-09T13:09:31.213Z,21.70
2018-10-09T13:12:40.916Z,21.90
2018-10-09T13:15:44.294Z,21.80
2018-10-09T13:27:14.759Z,21.90
2018-10-09T13:30:25.047Z,22.10
2018-10-09T13:33:14.893Z,22.20
2018-10-09T13:36:07.073Z,22.10
2018-10-09T13:38:51.905Z,22.00
2018-10-09T13:41:51.815Z,22.00
2018-10-09T13:45:07.089Z,22.00
2018-10-09T13:48:26.733Z,22.00
2018-10-09T13:54:15.601Z,22.00
2018-10-09T13:57:07.458Z,21.90
2018-10-09T13:59:43.922Z,22.00
2018-10-09T14:02:35.063Z,21.90
2018-10-09T14:05:33.084Z,21.80
2018-10-09T14:08:14.606Z,21.80
2018-10-09T14:11:11.599Z,21.80
2018-10-09T14:13:56.743Z,21.70
2018-10-09T14:17:00.956Z,21.60
2018-10-09T14:19:55.165Z,21.40
2018-10-09T14:22:57.481Z,21.10
2018-10-09T14:25:56.764Z,21.00
2018-10-09T14:29:04.603Z,21.00
2018-10-09T14:34:55.830Z,21.00
2018-10-09T14:37:53.228Z,20.90
2018-10-09T14:41:03.504Z,20.90
2018-10-09T14:43:50.957Z,20.80
2018-10-09T14:46:39.993Z,20.80
2018-10-09T14:49:27.129Z,20.80
2018-10-09T14:52:25.476Z,20.70
2018-10-09T14:55:16.793Z,20.60
2018-10-09T15:14:23.964Z,20.60
2018-10-09T15:20:44.447Z,20.50
2018-10-09T16:36:12.797Z,19.10
2018-10-09T16:57:46.090Z,18.40
2018-10-09T17:48:43.017Z,16.80
2018-10-09T18:02:18.620Z,16.60
2018-10-09T18:09:12.082Z,16.00
2018-10-09T18:24:07.695Z,16.00
2018-10-09T18:43:09.048Z,15.60
2018-10-09T18:46:15.659Z,15.50
2018-10-09T19:01:21.536Z,15.50
2018-10-09T19:06:30.636Z,15.70
2018-10-09T19:09:16.842Z,15.70
2018-10-09T19:58:22.073Z,15.60
2018-10-09T20:16:09.423Z,14.70
2018-10-09T20:18:58.393Z,14.70
2018-10-09T20:32:58.992Z,14.50
2018-10-09T22:26:17.409Z,14.40
2018-10-09T22:29:04.019Z,13.50
2018-10-09T22:34:49.449Z,13.30
2018-10-09T22:37:39.606Z,13.20
2018-10-09T22:40:21.936Z,13.10
2018-10-09T22:43:06.741Z,13.10
2018-10-09T22:45:56.913Z,13.10
2018-10-09T22:51:32.884Z,13.00
2018-10-09T22:54:20.629Z,13.00
2018-10-09T22:57:23.066Z,13.00
2018-10-09T23:00:36.360Z,13.00
2018-10-09T23:03:23.064Z,13.10
2018-10-09T23:06:23.475Z,13.10
2018-10-09T23:09:15.879Z,13.10
2018-10-09T23:12:00.379Z,13.10
2018-10-09T23:15:10.853Z,13.10
2018-10-09T23:18:05.126Z,13.10
2018-10-09T23:20:59.300Z,13.10
2018-10-09T23:23:40.402Z,13.10
2018-10-09T23:26:40.466Z,13.10
2018-10-09T23:29:31.056Z,13.10
2018-10-09T23:34:54.094Z,13.00
2018-10-09T23:40:29.046Z,13.10
2018-10-09T23:43:27.093Z,13.00
2018-10-09T23:46:14.305Z,13.10
2018-10-09T23:48:49.774Z,13.00
2018-10-09T23:51:34.037Z,13.00
2018-10-09T23:54:22.688Z,13.00
2018-10-09T23:57:05.807Z,12.80
2018-10-09T23:59:51.862Z,12.80
